Aviation Digital Data Service (ADDS)

Output produced by METARs form (1245 UTC 04 March 2015)
found at http://aviationweather.gov/adds/metars/
 
KRME 041136Z 0412/0512 28008KT P6SM OVC015 
     TEMPO 0412/0414 -FZDZ 
     FM041800 28010KT P6SM OVC025 
     FM050000 29008KT P6SM OVC035